OEMA

Medina/Prince Mohammad Bin Abdulaziz International Airport

Airport
ICAO code
OEMA
IATA Code
MED
Summary
ICAO Region
MID
ICAO Territory
Location

Medina, Al Madinah

Serving
Medina
Elevation
2151 ft
Coordinates
24° 33' 8" N , 39° 42' 23" E
KCC
Metar
Observation
OEMA 260800Z 10013KT CAVOK 35/03 Q1018 NOSIG
Station
Madinah
Date/Time
2022-09-26 08:00:00
Wind direction
100°
Wind speed
13 kts
Lowest cloud amount
clouds and visibility OK
Temperature
35°C
Dew point
3°C
Humidity
13%
QNH
1018 hPa
Weather condition
n/a

Prince Mohammad Bin Abdulaziz International Airport is located 20 km northeast of Medina, Saudi Arabia.

Climatology

Hot Desert Climate (Köppen climate classification BWh) - Hot desert climates are typically found in the subtropics where there is unbroken sunshine for the whole year due to the stable descending air and high pressure, little or no precipitation. Maximum temperatures of 40°C to 45°C are not uncommon, particularly during the warmer months of the year. During colder periods of the year, night-time temperatures can drop to freezing or below due to the exceptional radiation loss under the clear skies. However, very rarely do temperatures drop far below freezing.

Runways

Designator Length Width Surface Rops
18/36 3060 45 ASP Yes/Yes
17/35 4008 45 ASP Yes/Yes

Airport map

Aerial View

SKYbrary Partners:

Safety knowledge contributed by: